sensor_id;sensor_type;location;lat;lon;timestamp;P1;durP1;ratioP1;P2;durP2;ratioP2
78848;SDS011;68197;41.864;21.942;2023-03-07T00:01:27;26.77;;;14.90;;
78848;SDS011;68197;41.864;21.942;2023-03-07T00:03:54;16.50;;;12.45;;
78848;SDS011;68197;41.864;21.942;2023-03-07T00:06:20;20.05;;;13.27;;
78848;SDS011;68197;41.864;21.942;2023-03-07T00:08:53;18.67;;;13.68;;
78848;SDS011;68197;41.864;21.942;2023-03-07T00:11:20;15.40;;;12.30;;
78848;SDS011;68197;41.864;21.942;2023-03-07T00:13:46;17.02;;;11.02;;
78848;SDS011;68197;41.864;21.942;2023-03-07T00:16:13;17.00;;;12.60;;
78848;SDS011;68197;41.864;21.942;2023-03-07T00:18:40;14.77;;;10.20;;
78848;SDS011;68197;41.864;21.942;2023-03-07T00:21:08;13.95;;;11.63;;
78848;SDS011;68197;41.864;21.942;2023-03-07T00:23:35;13.65;;;9.02;;
78848;SDS011;68197;41.864;21.942;2023-03-07T00:26:05;14.07;;;10.30;;
78848;SDS011;68197;41.864;21.942;2023-03-07T00:28:31;15.23;;;10.98;;
78848;SDS011;68197;41.864;21.942;2023-03-07T00:30:58;15.88;;;11.90;;
78848;SDS011;68197;41.864;21.942;2023-03-07T00:33:25;15.10;;;11.43;;
78848;SDS011;68197;41.864;21.942;2023-03-07T00:35:55;14.57;;;10.27;;
78848;SDS011;68197;41.864;21.942;2023-03-07T00:38:21;13.07;;;9.60;;
78848;SDS011;68197;41.864;21.942;2023-03-07T00:40:54;11.48;;;9.27;;
78848;SDS011;68197;41.864;21.942;2023-03-07T00:43:21;14.70;;;10.57;;
78848;SDS011;68197;41.864;21.942;2023-03-07T00:45:47;13.75;;;10.23;;
78848;SDS011;68197;41.864;21.942;2023-03-07T00:48:13;17.20;;;12.93;;
78848;SDS011;68197;41.864;21.942;2023-03-07T00:50:39;17.30;;;14.20;;
78848;SDS011;68197;41.864;21.942;2023-03-07T00:53:05;17.77;;;12.98;;
78848;SDS011;68197;41.864;21.942;2023-03-07T00:55:31;18.23;;;13.15;;
78848;SDS011;68197;41.864;21.942;2023-03-07T00:57:57;15.75;;;13.20;;
78848;SDS011;68197;41.864;21.942;2023-03-07T01:00:23;14.40;;;10.85;;
78848;SDS011;68197;41.864;21.942;2023-03-07T01:02:50;12.80;;;9.73;;
78848;SDS011;68197;41.864;21.942;2023-03-07T01:05:16;19.98;;;12.82;;
78848;SDS011;68197;41.864;21.942;2023-03-07T01:07:42;15.10;;;10.77;;
78848;SDS011;68197;41.864;21.942;2023-03-07T01:10:08;13.30;;;10.10;;
78848;SDS011;68197;41.864;21.942;2023-03-07T01:12:34;14.05;;;10.90;;
78848;SDS011;68197;41.864;21.942;2023-03-07T01:15:00;14.65;;;11.48;;
78848;SDS011;68197;41.864;21.942;2023-03-07T01:17:29;13.95;;;11.77;;
78848;SDS011;68197;41.864;21.942;2023-03-07T01:19:55;16.35;;;12.35;;
78848;SDS011;68197;41.864;21.942;2023-03-07T01:22:21;11.77;;;9.65;;
78848;SDS011;68197;41.864;21.942;2023-03-07T01:24:47;15.27;;;10.70;;
78848;SDS011;68197;41.864;21.942;2023-03-07T01:27:13;16.95;;;12.27;;
78848;SDS011;68197;41.864;21.942;2023-03-07T01:29:39;15.55;;;12.52;;
78848;SDS011;68197;41.864;21.942;2023-03-07T01:32:06;18.40;;;13.90;;
78848;SDS011;68197;41.864;21.942;2023-03-07T01:34:32;18.65;;;13.43;;
78848;SDS011;68197;41.864;21.942;2023-03-07T01:36:58;15.70;;;12.45;;
78848;SDS011;68197;41.864;21.942;2023-03-07T01:39:24;14.75;;;8.95;;
78848;SDS011;68197;41.864;21.942;2023-03-07T01:41:50;15.43;;;9.35;;
78848;SDS011;68197;41.864;21.942;2023-03-07T01:44:17;14.10;;;9.73;;
78848;SDS011;68197;41.864;21.942;2023-03-07T01:46:45;15.15;;;11.35;;
78848;SDS011;68197;41.864;21.942;2023-03-07T01:51:38;18.60;;;12.82;;
78848;SDS011;68197;41.864;21.942;2023-03-07T01:54:05;19.10;;;12.40;;
78848;SDS011;68197;41.864;21.942;2023-03-07T01:56:32;20.65;;;13.60;;
78848;SDS011;68197;41.864;21.942;2023-03-07T01:58:59;19.75;;;12.85;;
78848;SDS011;68197;41.864;21.942;2023-03-07T02:01:25;16.73;;;10.90;;
78848;SDS011;68197;41.864;21.942;2023-03-07T02:03:52;18.63;;;11.32;;
78848;SDS011;68197;41.864;21.942;2023-03-07T02:06:19;17.67;;;11.68;;
78848;SDS011;68197;41.864;21.942;2023-03-07T02:08:47;17.30;;;12.40;;
78848;SDS011;68197;41.864;21.942;2023-03-07T02:11:13;17.42;;;11.02;;
78848;SDS011;68197;41.864;21.942;2023-03-07T02:13:40;18.75;;;9.68;;
78848;SDS011;68197;41.864;21.942;2023-03-07T02:16:06;16.75;;;11.00;;
78848;SDS011;68197;41.864;21.942;2023-03-07T02:18:34;13.30;;;9.82;;
78848;SDS011;68197;41.864;21.942;2023-03-07T02:26:22;15.20;;;12.68;;
78848;SDS011;68197;41.864;21.942;2023-03-07T02:28:50;13.45;;;9.43;;
78848;SDS011;68197;41.864;21.942;2023-03-07T02:31:17;13.07;;;10.18;;
78848;SDS011;68197;41.864;21.942;2023-03-07T02:33:43;12.20;;;7.55;;
78848;SDS011;68197;41.864;21.942;2023-03-07T02:36:13;15.35;;;10.10;;
78848;SDS011;68197;41.864;21.942;2023-03-07T02:38:41;16.33;;;12.20;;
78848;SDS011;68197;41.864;21.942;2023-03-07T02:41:10;18.65;;;12.65;;
78848;SDS011;68197;41.864;21.942;2023-03-07T02:43:36;33.53;;;20.70;;
78848;SDS011;68197;41.864;21.942;2023-03-07T02:46:02;15.60;;;11.35;;
78848;SDS011;68197;41.864;21.942;2023-03-07T02:48:28;18.30;;;12.30;;
78848;SDS011;68197;41.864;21.942;2023-03-07T02:50:54;22.08;;;15.43;;
78848;SDS011;68197;41.864;21.942;2023-03-07T02:53:21;16.50;;;12.00;;
78848;SDS011;68197;41.864;21.942;2023-03-07T02:55:48;19.27;;;13.60;;
78848;SDS011;68197;41.864;21.942;2023-03-07T02:58:14;14.82;;;10.60;;
78848;SDS011;68197;41.864;21.942;2023-03-07T03:00:40;20.55;;;14.27;;
78848;SDS011;68197;41.864;21.942;2023-03-07T03:03:06;19.10;;;11.77;;
78848;SDS011;68197;41.864;21.942;2023-03-07T03:05:32;14.77;;;10.85;;
78848;SDS011;68197;41.864;21.942;2023-03-07T03:07:58;12.07;;;10.77;;
78848;SDS011;68197;41.864;21.942;2023-03-07T03:10:24;17.55;;;12.65;;
78848;SDS011;68197;41.864;21.942;2023-03-07T03:12:50;22.17;;;17.00;;
78848;SDS011;68197;41.864;21.942;2023-03-07T03:15:16;19.67;;;15.55;;
78848;SDS011;68197;41.864;21.942;2023-03-07T03:17:42;13.90;;;11.70;;
78848;SDS011;68197;41.864;21.942;2023-03-07T03:20:09;27.30;;;18.02;;
78848;SDS011;68197;41.864;21.942;2023-03-07T03:22:40;14.10;;;10.52;;
78848;SDS011;68197;41.864;21.942;2023-03-07T03:25:07;13.20;;;11.13;;
78848;SDS011;68197;41.864;21.942;2023-03-07T03:27:34;15.93;;;12.23;;
78848;SDS011;68197;41.864;21.942;2023-03-07T03:30:00;15.15;;;10.30;;
78848;SDS011;68197;41.864;21.942;2023-03-07T03:32:26;21.95;;;14.05;;
78848;SDS011;68197;41.864;21.942;2023-03-07T03:34:53;22.77;;;13.60;;
78848;SDS011;68197;41.864;21.942;2023-03-07T03:37:19;31.23;;;18.52;;
78848;SDS011;68197;41.864;21.942;2023-03-07T03:39:45;23.67;;;12.88;;
78848;SDS011;68197;41.864;21.942;2023-03-07T03:42:11;19.90;;;11.95;;
78848;SDS011;68197;41.864;21.942;2023-03-07T03:44:37;15.32;;;10.98;;
78848;SDS011;68197;41.864;21.942;2023-03-07T03:47:03;19.10;;;14.68;;
78848;SDS011;68197;41.864;21.942;2023-03-07T03:49:29;20.15;;;12.20;;
78848;SDS011;68197;41.864;21.942;2023-03-07T03:51:56;14.90;;;11.15;;
78848;SDS011;68197;41.864;21.942;2023-03-07T03:54:22;32.17;;;24.02;;
78848;SDS011;68197;41.864;21.942;2023-03-07T03:56:48;22.23;;;15.68;;
78848;SDS011;68197;41.864;21.942;2023-03-07T03:59:14;18.85;;;13.80;;
78848;SDS011;68197;41.864;21.942;2023-03-07T04:01:40;17.63;;;13.60;;
78848;SDS011;68197;41.864;21.942;2023-03-07T04:04:06;25.15;;;17.90;;
78848;SDS011;68197;41.864;21.942;2023-03-07T04:06:33;26.23;;;19.67;;
78848;SDS011;68197;41.864;21.942;2023-03-07T04:08:59;26.73;;;20.50;;
78848;SDS011;68197;41.864;21.942;2023-03-07T04:11:27;16.10;;;11.35;;
78848;SDS011;68197;41.864;21.942;2023-03-07T04:13:53;15.98;;;11.93;;
78848;SDS011;68197;41.864;21.942;2023-03-07T04:16:20;14.25;;;8.73;;
78848;SDS011;68197;41.864;21.942;2023-03-07T04:18:49;12.93;;;9.90;;
78848;SDS011;68197;41.864;21.942;2023-03-07T04:21:15;13.10;;;8.55;;
78848;SDS011;68197;41.864;21.942;2023-03-07T04:23:41;12.90;;;9.75;;
78848;SDS011;68197;41.864;21.942;2023-03-07T04:26:08;11.75;;;9.40;;
78848;SDS011;68197;41.864;21.942;2023-03-07T04:28:38;15.95;;;10.68;;
78848;SDS011;68197;41.864;21.942;2023-03-07T04:31:08;13.68;;;11.05;;
78848;SDS011;68197;41.864;21.942;2023-03-07T04:33:35;19.05;;;12.45;;
78848;SDS011;68197;41.864;21.942;2023-03-07T04:36:01;15.05;;;11.38;;
78848;SDS011;68197;41.864;21.942;2023-03-07T04:38:27;17.08;;;12.68;;
78848;SDS011;68197;41.864;21.942;2023-03-07T04:40:53;15.95;;;11.80;;
78848;SDS011;68197;41.864;21.942;2023-03-07T04:43:19;15.50;;;11.30;;
78848;SDS011;68197;41.864;21.942;2023-03-07T04:45:45;22.48;;;14.43;;
78848;SDS011;68197;41.864;21.942;2023-03-07T04:48:11;14.02;;;10.52;;
78848;SDS011;68197;41.864;21.942;2023-03-07T04:50:38;18.30;;;12.43;;
78848;SDS011;68197;41.864;21.942;2023-03-07T04:53:04;21.35;;;13.90;;
78848;SDS011;68197;41.864;21.942;2023-03-07T04:55:30;20.15;;;13.77;;
78848;SDS011;68197;41.864;21.942;2023-03-07T04:57:56;20.63;;;13.40;;
78848;SDS011;68197;41.864;21.942;2023-03-07T05:00:22;21.10;;;12.60;;
78848;SDS011;68197;41.864;21.942;2023-03-07T05:02:49;18.52;;;11.98;;
78848;SDS011;68197;41.864;21.942;2023-03-07T05:05:15;16.15;;;12.70;;
78848;SDS011;68197;41.864;21.942;2023-03-07T05:07:42;26.15;;;16.17;;
78848;SDS011;68197;41.864;21.942;2023-03-07T05:10:09;35.28;;;19.95;;
78848;SDS011;68197;41.864;21.942;2023-03-07T05:12:35;28.77;;;18.27;;
78848;SDS011;68197;41.864;21.942;2023-03-07T05:15:01;25.98;;;16.20;;
78848;SDS011;68197;41.864;21.942;2023-03-07T05:17:28;25.35;;;18.45;;
78848;SDS011;68197;41.864;21.942;2023-03-07T05:19:55;21.13;;;12.90;;
78848;SDS011;68197;41.864;21.942;2023-03-07T05:22:21;23.33;;;15.23;;
78848;SDS011;68197;41.864;21.942;2023-03-07T05:24:48;23.27;;;16.75;;
78848;SDS011;68197;41.864;21.942;2023-03-07T05:27:14;18.42;;;13.25;;
78848;SDS011;68197;41.864;21.942;2023-03-07T05:29:40;38.03;;;21.75;;
78848;SDS011;68197;41.864;21.942;2023-03-07T05:32:06;36.60;;;24.65;;
78848;SDS011;68197;41.864;21.942;2023-03-07T05:34:34;47.63;;;28.40;;
78848;SDS011;68197;41.864;21.942;2023-03-07T05:37:02;108.20;;;61.10;;
78848;SDS011;68197;41.864;21.942;2023-03-07T05:39:28;102.20;;;53.33;;
78848;SDS011;68197;41.864;21.942;2023-03-07T05:41:54;81.15;;;45.60;;
78848;SDS011;68197;41.864;21.942;2023-03-07T05:44:20;73.85;;;47.45;;
78848;SDS011;68197;41.864;21.942;2023-03-07T05:46:46;50.30;;;31.60;;
78848;SDS011;68197;41.864;21.942;2023-03-07T05:49:12;57.83;;;36.17;;
78848;SDS011;68197;41.864;21.942;2023-03-07T05:51:38;32.40;;;23.10;;
78848;SDS011;68197;41.864;21.942;2023-03-07T05:54:04;39.90;;;24.92;;
78848;SDS011;68197;41.864;21.942;2023-03-07T05:56:31;35.38;;;26.73;;
78848;SDS011;68197;41.864;21.942;2023-03-07T05:58:57;31.05;;;20.75;;
78848;SDS011;68197;41.864;21.942;2023-03-07T06:01:23;36.15;;;25.55;;
78848;SDS011;68197;41.864;21.942;2023-03-07T06:03:49;28.10;;;20.90;;
78848;SDS011;68197;41.864;21.942;2023-03-07T06:06:15;31.45;;;22.13;;
78848;SDS011;68197;41.864;21.942;2023-03-07T06:08:41;36.60;;;22.17;;
78848;SDS011;68197;41.864;21.942;2023-03-07T06:11:08;40.00;;;22.55;;
78848;SDS011;68197;41.864;21.942;2023-03-07T06:13:35;34.55;;;21.83;;
78848;SDS011;68197;41.864;21.942;2023-03-07T06:16:01;45.88;;;28.77;;
78848;SDS011;68197;41.864;21.942;2023-03-07T06:18:27;46.45;;;29.23;;
78848;SDS011;68197;41.864;21.942;2023-03-07T06:20:57;41.42;;;28.30;;
78848;SDS011;68197;41.864;21.942;2023-03-07T06:23:25;45.38;;;27.67;;
78848;SDS011;68197;41.864;21.942;2023-03-07T06:25:51;44.45;;;28.52;;
78848;SDS011;68197;41.864;21.942;2023-03-07T06:28:17;37.10;;;23.27;;
78848;SDS011;68197;41.864;21.942;2023-03-07T06:30:43;49.83;;;34.28;;
78848;SDS011;68197;41.864;21.942;2023-03-07T06:33:09;43.78;;;28.55;;
78848;SDS011;68197;41.864;21.942;2023-03-07T06:35:39;38.55;;;26.00;;
78848;SDS011;68197;41.864;21.942;2023-03-07T06:38:05;28.67;;;18.02;;
78848;SDS011;68197;41.864;21.942;2023-03-07T06:40:31;29.63;;;20.52;;
78848;SDS011;68197;41.864;21.942;2023-03-07T06:42:58;31.48;;;21.63;;
78848;SDS011;68197;41.864;21.942;2023-03-07T06:45:24;29.20;;;20.67;;
78848;SDS011;68197;41.864;21.942;2023-03-07T06:47:50;34.30;;;22.55;;
78848;SDS011;68197;41.864;21.942;2023-03-07T06:50:16;39.42;;;24.55;;
78848;SDS011;68197;41.864;21.942;2023-03-07T06:52:42;43.97;;;32.63;;
78848;SDS011;68197;41.864;21.942;2023-03-07T06:55:09;38.72;;;27.33;;
78848;SDS011;68197;41.864;21.942;2023-03-07T06:57:35;36.80;;;26.38;;
78848;SDS011;68197;41.864;21.942;2023-03-07T07:00:04;37.60;;;22.70;;
78848;SDS011;68197;41.864;21.942;2023-03-07T07:02:31;36.92;;;25.83;;
78848;SDS011;68197;41.864;21.942;2023-03-07T07:04:57;38.05;;;27.65;;
78848;SDS011;68197;41.864;21.942;2023-03-07T07:07:23;43.15;;;28.00;;
78848;SDS011;68197;41.864;21.942;2023-03-07T07:09:50;44.25;;;24.20;;
78848;SDS011;68197;41.864;21.942;2023-03-07T07:12:16;36.33;;;25.52;;
78848;SDS011;68197;41.864;21.942;2023-03-07T07:14:42;43.53;;;27.98;;
78848;SDS011;68197;41.864;21.942;2023-03-07T07:17:09;38.88;;;27.52;;
78848;SDS011;68197;41.864;21.942;2023-03-07T07:19:35;31.17;;;23.42;;
78848;SDS011;68197;41.864;21.942;2023-03-07T07:22:01;27.00;;;20.80;;
78848;SDS011;68197;41.864;21.942;2023-03-07T07:24:28;18.35;;;11.50;;
78848;SDS011;68197;41.864;21.942;2023-03-07T07:26:54;22.95;;;17.15;;
78848;SDS011;68197;41.864;21.942;2023-03-07T07:29:21;22.85;;;16.60;;
78848;SDS011;68197;41.864;21.942;2023-03-07T07:31:47;25.25;;;20.45;;
78848;SDS011;68197;41.864;21.942;2023-03-07T07:34:16;14.95;;;10.68;;
78848;SDS011;68197;41.864;21.942;2023-03-07T07:36:42;14.02;;;9.50;;
78848;SDS011;68197;41.864;21.942;2023-03-07T07:39:09;16.98;;;11.05;;
78848;SDS011;68197;41.864;21.942;2023-03-07T07:41:35;21.33;;;15.10;;
78848;SDS011;68197;41.864;21.942;2023-03-07T07:44:01;11.88;;;9.55;;
78848;SDS011;68197;41.864;21.942;2023-03-07T07:46:28;14.10;;;10.60;;
78848;SDS011;68197;41.864;21.942;2023-03-07T07:48:54;14.23;;;10.45;;
78848;SDS011;68197;41.864;21.942;2023-03-07T07:51:20;12.23;;;9.40;;
78848;SDS011;68197;41.864;21.942;2023-03-07T07:53:47;11.35;;;9.23;;
78848;SDS011;68197;41.864;21.942;2023-03-07T07:56:13;12.50;;;8.57;;
78848;SDS011;68197;41.864;21.942;2023-03-07T07:58:39;13.35;;;10.25;;
78848;SDS011;68197;41.864;21.942;2023-03-07T08:01:15;13.88;;;10.25;;
78848;SDS011;68197;41.864;21.942;2023-03-07T08:03:41;14.60;;;10.95;;
78848;SDS011;68197;41.864;21.942;2023-03-07T08:06:08;11.30;;;8.70;;
78848;SDS011;68197;41.864;21.942;2023-03-07T08:08:34;12.30;;;7.72;;
78848;SDS011;68197;41.864;21.942;2023-03-07T08:11:00;12.35;;;8.43;;
78848;SDS011;68197;41.864;21.942;2023-03-07T08:13:26;15.80;;;10.15;;
78848;SDS011;68197;41.864;21.942;2023-03-07T08:15:53;11.77;;;10.18;;
78848;SDS011;68197;41.864;21.942;2023-03-07T08:18:19;14.35;;;9.85;;
78848;SDS011;68197;41.864;21.942;2023-03-07T08:20:45;12.35;;;9.43;;
78848;SDS011;68197;41.864;21.942;2023-03-07T08:23:11;13.07;;;9.88;;
78848;SDS011;68197;41.864;21.942;2023-03-07T08:25:37;12.23;;;8.43;;
78848;SDS011;68197;41.864;21.942;2023-03-07T08:28:03;15.15;;;8.80;;
78848;SDS011;68197;41.864;21.942;2023-03-07T08:30:30;10.68;;;7.80;;
78848;SDS011;68197;41.864;21.942;2023-03-07T08:32:57;12.50;;;7.72;;
78848;SDS011;68197;41.864;21.942;2023-03-07T08:35:24;10.13;;;8.65;;
78848;SDS011;68197;41.864;21.942;2023-03-07T08:37:54;12.10;;;8.70;;
78848;SDS011;68197;41.864;21.942;2023-03-07T08:40:20;9.52;;;7.45;;
78848;SDS011;68197;41.864;21.942;2023-03-07T08:42:48;9.18;;;7.22;;
78848;SDS011;68197;41.864;21.942;2023-03-07T08:45:14;10.55;;;8.13;;
78848;SDS011;68197;41.864;21.942;2023-03-07T08:47:41;9.52;;;7.82;;
78848;SDS011;68197;41.864;21.942;2023-03-07T08:50:08;9.32;;;7.13;;
78848;SDS011;68197;41.864;21.942;2023-03-07T08:52:34;10.32;;;8.25;;
78848;SDS011;68197;41.864;21.942;2023-03-07T08:55:00;7.85;;;5.72;;
78848;SDS011;68197;41.864;21.942;2023-03-07T08:57:26;12.73;;;10.10;;
78848;SDS011;68197;41.864;21.942;2023-03-07T08:59:52;9.65;;;6.80;;
78848;SDS011;68197;41.864;21.942;2023-03-07T09:02:18;8.93;;;6.55;;
78848;SDS011;68197;41.864;21.942;2023-03-07T09:04:44;12.25;;;8.93;;
78848;SDS011;68197;41.864;21.942;2023-03-07T09:07:10;9.68;;;7.50;;
78848;SDS011;68197;41.864;21.942;2023-03-07T09:09:37;10.05;;;8.27;;
78848;SDS011;68197;41.864;21.942;2023-03-07T09:12:03;9.25;;;7.32;;
78848;SDS011;68197;41.864;21.942;2023-03-07T09:14:29;9.02;;;7.32;;
78848;SDS011;68197;41.864;21.942;2023-03-07T09:16:55;8.82;;;6.18;;
78848;SDS011;68197;41.864;21.942;2023-03-07T09:19:21;8.57;;;5.03;;
78848;SDS011;68197;41.864;21.942;2023-03-07T09:21:47;11.75;;;8.38;;
78848;SDS011;68197;41.864;21.942;2023-03-07T09:24:14;13.25;;;7.55;;
78848;SDS011;68197;41.864;21.942;2023-03-07T09:26:40;9.23;;;4.28;;
78848;SDS011;68197;41.864;21.942;2023-03-07T09:29:06;11.68;;;7.32;;
78848;SDS011;68197;41.864;21.942;2023-03-07T09:31:33;16.17;;;9.63;;
78848;SDS011;68197;41.864;21.942;2023-03-07T09:33:59;8.13;;;6.50;;
78848;SDS011;68197;41.864;21.942;2023-03-07T09:36:25;6.75;;;5.88;;
78848;SDS011;68197;41.864;21.942;2023-03-07T09:38:51;6.22;;;5.10;;
78848;SDS011;68197;41.864;21.942;2023-03-07T09:43:50;17.02;;;10.05;;
78848;SDS011;68197;41.864;21.942;2023-03-07T09:46:30;6.15;;;5.43;;
78848;SDS011;68197;41.864;21.942;2023-03-07T09:49:05;6.55;;;4.20;;
78848;SDS011;68197;41.864;21.942;2023-03-07T09:54:10;6.68;;;5.70;;
78848;SDS011;68197;41.864;21.942;2023-03-07T10:01:47;6.25;;;4.57;;
78848;SDS011;68197;41.864;21.942;2023-03-07T10:04:16;7.70;;;5.55;;
78848;SDS011;68197;41.864;21.942;2023-03-07T10:06:45;7.97;;;4.65;;
78848;SDS011;68197;41.864;21.942;2023-03-07T10:09:18;10.95;;;6.63;;
78848;SDS011;68197;41.864;21.942;2023-03-07T10:17:32;5.47;;;4.28;;
78848;SDS011;68197;41.864;21.942;2023-03-07T10:20:05;8.13;;;5.97;;
78848;SDS011;68197;41.864;21.942;2023-03-07T10:27:33;10.15;;;5.68;;
78848;SDS011;68197;41.864;21.942;2023-03-07T10:29:59;7.75;;;4.97;;
78848;SDS011;68197;41.864;21.942;2023-03-07T10:35:20;5.28;;;2.63;;
78848;SDS011;68197;41.864;21.942;2023-03-07T10:37:49;8.43;;;5.40;;
78848;SDS011;68197;41.864;21.942;2023-03-07T10:40:23;6.82;;;4.75;;
78848;SDS011;68197;41.864;21.942;2023-03-07T10:42:50;7.53;;;4.65;;
78848;SDS011;68197;41.864;21.942;2023-03-07T10:45:17;7.43;;;5.22;;
78848;SDS011;68197;41.864;21.942;2023-03-07T10:47:43;7.50;;;5.47;;
78848;SDS011;68197;41.864;21.942;2023-03-07T10:52:39;12.73;;;8.90;;
78848;SDS011;68197;41.864;21.942;2023-03-07T10:57:50;5.55;;;4.88;;
78848;SDS011;68197;41.864;21.942;2023-03-07T11:00:16;11.07;;;6.05;;
78848;SDS011;68197;41.864;21.942;2023-03-07T11:02:43;4.93;;;3.70;;
78848;SDS011;68197;41.864;21.942;2023-03-07T11:07:49;7.18;;;5.55;;
78848;SDS011;68197;41.864;21.942;2023-03-07T11:10:34;8.77;;;4.00;;
78848;SDS011;68197;41.864;21.942;2023-03-07T11:13:22;5.97;;;4.20;;
78848;SDS011;68197;41.864;21.942;2023-03-07T11:15:47;5.35;;;4.63;;
78848;SDS011;68197;41.864;21.942;2023-03-07T11:18:56;4.70;;;3.67;;
78848;SDS011;68197;41.864;21.942;2023-03-07T11:21:03;6.18;;;4.72;;
78848;SDS011;68197;41.864;21.942;2023-03-07T11:23:29;7.03;;;5.13;;
78848;SDS011;68197;41.864;21.942;2023-03-07T11:25:57;7.30;;;5.03;;
78848;SDS011;68197;41.864;21.942;2023-03-07T11:28:38;9.18;;;5.20;;
78848;SDS011;68197;41.864;21.942;2023-03-07T11:31:12;8.77;;;5.40;;
78848;SDS011;68197;41.864;21.942;2023-03-07T11:33:46;7.30;;;4.88;;
78848;SDS011;68197;41.864;21.942;2023-03-07T11:36:16;8.57;;;4.55;;
78848;SDS011;68197;41.864;21.942;2023-03-07T11:38:56;6.20;;;2.95;;
78848;SDS011;68197;41.864;21.942;2023-03-07T11:56:48;5.78;;;3.28;;
78848;SDS011;68197;41.864;21.942;2023-03-07T11:59:50;5.10;;;3.25;;
78848;SDS011;68197;41.864;21.942;2023-03-07T12:02:30;6.55;;;3.40;;
78848;SDS011;68197;41.864;21.942;2023-03-07T12:10:28;12.40;;;4.38;;
78848;SDS011;68197;41.864;21.942;2023-03-07T12:13:00;12.80;;;7.78;;
78848;SDS011;68197;41.864;21.942;2023-03-07T12:15:41;4.75;;;3.70;;
78848;SDS011;68197;41.864;21.942;2023-03-07T12:18:27;4.10;;;2.90;;
78848;SDS011;68197;41.864;21.942;2023-03-07T12:23:55;11.23;;;6.65;;
78848;SDS011;68197;41.864;21.942;2023-03-07T12:28:56;5.50;;;3.70;;
78848;SDS011;68197;41.864;21.942;2023-03-07T12:31:29;3.75;;;1.73;;
78848;SDS011;68197;41.864;21.942;2023-03-07T12:33:58;3.75;;;3.40;;
78848;SDS011;68197;41.864;21.942;2023-03-07T12:41:42;8.90;;;6.38;;
78848;SDS011;68197;41.864;21.942;2023-03-07T12:44:11;9.02;;;6.25;;
78848;SDS011;68197;41.864;21.942;2023-03-07T12:46:40;6.03;;;3.95;;
78848;SDS011;68197;41.864;21.942;2023-03-07T12:51:52;11.63;;;5.75;;
78848;SDS011;68197;41.864;21.942;2023-03-07T12:54:21;3.92;;;2.63;;
78848;SDS011;68197;41.864;21.942;2023-03-07T12:59:20;6.20;;;4.25;;
78848;SDS011;68197;41.864;21.942;2023-03-07T13:02:00;3.88;;;3.05;;
78848;SDS011;68197;41.864;21.942;2023-03-07T13:06:54;6.95;;;4.32;;
78848;SDS011;68197;41.864;21.942;2023-03-07T13:09:25;4.22;;;2.45;;
78848;SDS011;68197;41.864;21.942;2023-03-07T13:12:08;2.72;;;1.00;;
78848;SDS011;68197;41.864;21.942;2023-03-07T13:14:41;6.13;;;4.03;;
78848;SDS011;68197;41.864;21.942;2023-03-07T13:17:08;3.92;;;2.25;;
78848;SDS011;68197;41.864;21.942;2023-03-07T13:24:39;4.13;;;2.95;;
78848;SDS011;68197;41.864;21.942;2023-03-07T13:27:12;5.00;;;3.05;;
78848;SDS011;68197;41.864;21.942;2023-03-07T13:35:08;7.53;;;4.97;;
78848;SDS011;68197;41.864;21.942;2023-03-07T13:40:20;6.75;;;4.28;;
78848;SDS011;68197;41.864;21.942;2023-03-07T13:42:47;5.05;;;4.47;;
78848;SDS011;68197;41.864;21.942;2023-03-07T13:47:58;3.83;;;3.30;;
78848;SDS011;68197;41.864;21.942;2023-03-07T13:51:07;8.77;;;4.82;;
78848;SDS011;68197;41.864;21.942;2023-03-07T13:53:14;5.85;;;4.30;;
78848;SDS011;68197;41.864;21.942;2023-03-07T13:55:42;5.10;;;3.60;;
78848;SDS011;68197;41.864;21.942;2023-03-07T14:00:40;8.00;;;4.75;;
78848;SDS011;68197;41.864;21.942;2023-03-07T14:03:46;5.57;;;3.60;;
78848;SDS011;68197;41.864;21.942;2023-03-07T14:06:09;6.55;;;5.32;;
78848;SDS011;68197;41.864;21.942;2023-03-07T14:08:36;4.70;;;3.97;;
78848;SDS011;68197;41.864;21.942;2023-03-07T14:11:03;10.43;;;6.93;;
78848;SDS011;68197;41.864;21.942;2023-03-07T14:21:17;7.13;;;3.92;;
78848;SDS011;68197;41.864;21.942;2023-03-07T14:28:49;10.35;;;7.35;;
78848;SDS011;68197;41.864;21.942;2023-03-07T14:31:21;12.02;;;8.40;;
78848;SDS011;68197;41.864;21.942;2023-03-07T14:33:48;11.80;;;8.45;;
78848;SDS011;68197;41.864;21.942;2023-03-07T14:36:32;21.38;;;14.50;;
78848;SDS011;68197;41.864;21.942;2023-03-07T14:38:59;19.50;;;13.38;;
78848;SDS011;68197;41.864;21.942;2023-03-07T14:44:25;11.00;;;6.30;;
78848;SDS011;68197;41.864;21.942;2023-03-07T14:47:00;21.27;;;7.68;;
78848;SDS011;68197;41.864;21.942;2023-03-07T14:49:36;7.15;;;5.78;;
78848;SDS011;68197;41.864;21.942;2023-03-07T14:52:07;11.18;;;7.07;;
78848;SDS011;68197;41.864;21.942;2023-03-07T14:54:36;16.80;;;10.45;;
78848;SDS011;68197;41.864;21.942;2023-03-07T14:57:02;5.28;;;4.03;;
78848;SDS011;68197;41.864;21.942;2023-03-07T14:59:28;6.20;;;4.43;;
78848;SDS011;68197;41.864;21.942;2023-03-07T15:01:55;7.22;;;4.25;;
78848;SDS011;68197;41.864;21.942;2023-03-07T15:04:23;9.20;;;7.43;;
78848;SDS011;68197;41.864;21.942;2023-03-07T15:06:53;23.95;;;13.30;;
78848;SDS011;68197;41.864;21.942;2023-03-07T15:09:20;17.83;;;9.32;;
78848;SDS011;68197;41.864;21.942;2023-03-07T15:14:30;20.02;;;13.45;;
78848;SDS011;68197;41.864;21.942;2023-03-07T15:16:59;19.70;;;12.23;;
78848;SDS011;68197;41.864;21.942;2023-03-07T15:21:59;9.50;;;7.15;;
78848;SDS011;68197;41.864;21.942;2023-03-07T15:24:28;26.08;;;19.73;;
78848;SDS011;68197;41.864;21.942;2023-03-07T15:26:55;26.52;;;19.23;;
78848;SDS011;68197;41.864;21.942;2023-03-07T15:29:23;13.68;;;9.45;;
78848;SDS011;68197;41.864;21.942;2023-03-07T15:31:50;8.07;;;6.13;;
78848;SDS011;68197;41.864;21.942;2023-03-07T15:34:22;11.07;;;8.48;;
78848;SDS011;68197;41.864;21.942;2023-03-07T15:36:49;24.60;;;16.65;;
78848;SDS011;68197;41.864;21.942;2023-03-07T15:39:29;17.30;;;12.65;;
78848;SDS011;68197;41.864;21.942;2023-03-07T15:42:04;17.90;;;12.48;;
78848;SDS011;68197;41.864;21.942;2023-03-07T15:44:31;15.75;;;12.88;;
78848;SDS011;68197;41.864;21.942;2023-03-07T15:46:58;16.65;;;10.57;;
78848;SDS011;68197;41.864;21.942;2023-03-07T15:49:27;46.85;;;15.73;;
78848;SDS011;68197;41.864;21.942;2023-03-07T15:51:56;16.00;;;11.48;;
78848;SDS011;68197;41.864;21.942;2023-03-07T15:56:55;19.20;;;12.88;;
78848;SDS011;68197;41.864;21.942;2023-03-07T16:01:49;19.50;;;11.63;;
78848;SDS011;68197;41.864;21.942;2023-03-07T16:06:50;20.90;;;11.77;;
78848;SDS011;68197;41.864;21.942;2023-03-07T16:09:17;25.25;;;15.13;;
78848;SDS011;68197;41.864;21.942;2023-03-07T16:11:44;18.25;;;12.95;;
78848;SDS011;68197;41.864;21.942;2023-03-07T16:16:39;22.27;;;16.60;;
78848;SDS011;68197;41.864;21.942;2023-03-07T16:21:33;22.73;;;14.75;;
78848;SDS011;68197;41.864;21.942;2023-03-07T16:23:59;31.05;;;19.88;;
78848;SDS011;68197;41.864;21.942;2023-03-07T16:26:26;25.15;;;16.58;;
78848;SDS011;68197;41.864;21.942;2023-03-07T16:28:52;23.95;;;17.85;;
78848;SDS011;68197;41.864;21.942;2023-03-07T16:31:19;32.92;;;24.45;;